createdAt,value
2019-02-07T00:00:02.937Z,46.35
2019-02-07T00:03:06.975Z,46.36
2019-02-07T00:06:11.038Z,46.41
2019-02-07T00:09:15.102Z,46.38
2019-02-07T00:12:19.137Z,46.46
2019-02-07T00:15:23.195Z,46.38
2019-02-07T00:18:27.253Z,46.47
2019-02-07T00:21:31.670Z,46.45
2019-02-07T00:24:42.509Z,46.45
2019-02-07T00:27:41.469Z,46.49
2019-02-07T00:30:45.920Z,46.48
2019-02-07T00:33:49.974Z,46.52
2019-02-07T00:36:54.017Z,46.50
2019-02-07T00:39:58.246Z,46.54
2019-02-07T00:43:02.286Z,46.55
2019-02-07T00:46:06.348Z,46.54
2019-02-07T00:49:10.413Z,46.56
2019-02-07T00:52:14.449Z,46.56
2019-02-07T00:55:19.846Z,46.61
2019-02-07T00:58:23.884Z,46.62
2019-02-07T01:01:27.941Z,46.61
2019-02-07T01:04:32.000Z,46.60
2019-02-07T01:13:41.916Z,46.64
2019-02-07T01:16:45.973Z,46.71
2019-02-07T01:19:50.034Z,46.71
2019-02-07T01:22:54.068Z,46.66
2019-02-07T01:25:58.205Z,46.71
2019-02-07T01:29:02.272Z,46.70
2019-02-07T01:32:06.309Z,46.73
2019-02-07T01:35:10.369Z,46.73
2019-02-07T01:38:14.405Z,46.73
2019-02-07T01:41:18.465Z,46.79
2019-02-07T01:44:22.522Z,46.79
2019-02-07T01:47:26.559Z,46.80
2019-02-07T01:50:30.617Z,46.80
2019-02-07T01:53:34.657Z,46.87
2019-02-07T01:56:38.714Z,46.91
2019-02-07T01:59:42.770Z,46.95
2019-02-07T02:02:46.810Z,47.00
2019-02-07T02:05:50.869Z,46.99
2019-02-07T02:08:54.905Z,46.98
2019-02-07T02:11:58.966Z,47.02
2019-02-07T02:15:03.030Z,47.02
2019-02-07T02:18:07.056Z,47.05
2019-02-07T02:21:11.121Z,47.05
2019-02-07T02:24:15.176Z,47.14
2019-02-07T02:27:19.213Z,47.15
2019-02-07T02:30:25.423Z,47.19
2019-02-07T02:33:29.458Z,47.20
2019-02-07T02:36:33.517Z,47.19
2019-02-07T02:39:37.578Z,47.27
2019-02-07T02:42:41.789Z,47.27
2019-02-07T02:45:45.860Z,47.28
2019-02-07T02:48:49.889Z,47.29
2019-02-07T02:51:53.949Z,47.28
2019-02-07T02:54:58.183Z,47.29
2019-02-07T02:58:02.240Z,47.36
2019-02-07T03:01:22.973Z,47.38
2019-02-07T03:04:43.791Z,47.37
2019-02-07T03:07:58.128Z,47.46
2019-02-07T03:11:04.159Z,47.49
2019-02-07T03:14:21.810Z,47.46
2019-02-07T03:17:29.921Z,47.49
2019-02-07T03:20:41.361Z,47.56
2019-02-07T03:23:47.052Z,47.62
2019-02-07T03:26:55.392Z,47.62
2019-02-07T03:30:17.363Z,47.64
2019-02-07T03:33:38.952Z,47.67
2019-02-07T03:36:56.358Z,47.71
2019-02-07T03:40:08.241Z,47.78
2019-02-07T03:43:22.741Z,47.74
2019-02-07T03:46:46.222Z,47.71
2019-02-07T03:50:03.802Z,47.66
2019-02-07T03:53:18.057Z,47.73
2019-02-07T03:56:39.261Z,47.72
2019-02-07T03:59:45.316Z,47.75
2019-02-07T04:02:53.965Z,47.72
2019-02-07T04:05:59.669Z,47.72
2019-02-07T04:09:25.299Z,47.85
2019-02-07T04:12:40.239Z,47.82
2019-02-07T04:15:55.001Z,47.86
2019-02-07T04:19:00.677Z,47.85
2019-02-07T04:22:18.432Z,47.92
2019-02-07T04:25:39.446Z,47.81
2019-02-07T04:28:54.050Z,47.85
2019-02-07T04:32:02.447Z,47.79
2019-02-07T04:35:11.047Z,47.71
2019-02-07T04:38:22.475Z,47.60
2019-02-07T04:41:30.813Z,47.58
2019-02-07T04:44:39.553Z,47.53
2019-02-07T04:47:54.260Z,47.34
2019-02-07T04:51:08.649Z,47.38
2019-02-07T04:54:29.125Z,47.27
2019-02-07T04:57:51.169Z,47.23
2019-02-07T05:00:56.861Z,47.19
2019-02-07T05:04:08.415Z,47.25
2019-02-07T05:07:14.115Z,47.20
2019-02-07T05:10:35.973Z,47.23
2019-02-07T05:13:56.328Z,47.34
2019-02-07T05:17:08.037Z,47.48
2019-02-07T05:20:16.388Z,47.51
2019-02-07T05:23:28.071Z,47.50
2019-02-07T05:26:33.745Z,47.52
2019-02-07T05:29:51.323Z,47.56
2019-02-07T05:32:57.007Z,47.57
2019-02-07T05:36:19.139Z,47.56
2019-02-07T05:39:30.595Z,47.53
2019-02-07T05:42:36.303Z,47.54
2019-02-07T05:45:44.647Z,47.54
2019-02-07T05:48:50.725Z,47.52
2019-02-07T05:51:56.423Z,47.54
2019-02-07T05:55:17.069Z,47.51
2019-02-07T05:58:28.306Z,47.53
2019-02-07T06:01:39.723Z,47.55
2019-02-07T06:04:45.427Z,47.53
2019-02-07T06:07:59.786Z,47.54
2019-02-07T06:11:05.488Z,47.59
2019-02-07T06:14:11.458Z,47.51
2019-02-07T06:17:19.594Z,47.57
2019-02-07T06:20:25.299Z,47.53
2019-02-07T06:23:37.086Z,47.51
2019-02-07T06:26:59.539Z,47.52
2019-02-07T06:30:09.248Z,47.56
2019-02-07T06:33:20.826Z,47.54
2019-02-07T06:36:32.205Z,47.56
2019-02-07T06:39:37.902Z,47.54
2019-02-07T06:42:43.584Z,47.54
2019-02-07T06:45:51.972Z,47.55
2019-02-07T06:49:00.372Z,47.55
2019-02-07T06:52:06.065Z,47.52
2019-02-07T06:55:14.665Z,47.56
2019-02-07T06:58:20.342Z,47.53
2019-02-07T07:01:31.791Z,47.57
2019-02-07T07:04:54.040Z,47.53
2019-02-07T07:08:05.446Z,47.57
2019-02-07T07:11:20.133Z,47.59
2019-02-07T07:14:25.815Z,47.58
2019-02-07T07:17:43.395Z,47.61
2019-02-07T07:21:05.231Z,47.59
2019-02-07T07:24:27.112Z,47.60
2019-02-07T07:27:38.854Z,47.60
2019-02-07T07:31:00.831Z,47.56
2019-02-07T07:34:22.665Z,47.68
2019-02-07T07:37:46.370Z,47.71
2019-02-07T07:41:04.063Z,47.71
2019-02-07T07:44:18.277Z,47.79
2019-02-07T07:47:35.649Z,47.77
2019-02-07T07:50:40.230Z,47.77
2019-02-07T07:53:54.995Z,47.84
2019-02-07T07:57:06.589Z,47.83
2019-02-07T08:00:31.058Z,47.86
2019-02-07T08:03:53.010Z,47.89
2019-02-07T08:07:13.449Z,47.92
2019-02-07T08:10:19.151Z,47.87
2019-02-07T08:13:27.975Z,47.98
2019-02-07T08:16:39.613Z,47.99
2019-02-07T08:19:45.317Z,48.05
2019-02-07T08:22:53.945Z,48.02
2019-02-07T08:26:16.415Z,48.00
2019-02-07T08:29:22.113Z,48.10
2019-02-07T08:32:36.786Z,48.07
2019-02-07T08:35:42.491Z,48.05
2019-02-07T08:38:59.913Z,48.04
2019-02-07T08:42:12.099Z,48.10
2019-02-07T08:45:34.303Z,48.11
2019-02-07T08:48:42.757Z,48.11
2019-02-07T08:51:54.257Z,48.09
2019-02-07T08:55:08.681Z,48.07
2019-02-07T08:58:32.773Z,48.14
2019-02-07T09:01:38.547Z,48.13
2019-02-07T09:04:56.302Z,48.16
2019-02-07T09:08:07.437Z,48.16
2019-02-07T09:11:28.202Z,48.17
2019-02-07T09:14:36.571Z,48.15
2019-02-07T09:17:51.177Z,48.14
2019-02-07T09:21:12.216Z,48.23
2019-02-07T09:24:34.446Z,48.22
2019-02-07T09:27:40.145Z,48.19
2019-02-07T09:31:02.294Z,48.19
2019-02-07T09:34:17.125Z,48.23
2019-02-07T09:37:31.610Z,48.20
2019-02-07T09:40:46.019Z,48.15
2019-02-07T09:43:57.745Z,48.14
2019-02-07T09:47:09.206Z,48.12
2019-02-07T09:50:30.221Z,48.17
2019-02-07T09:53:38.334Z,48.18
2019-02-07T09:56:44.035Z,48.17
2019-02-07T10:00:06.121Z,48.10
2019-02-07T10:03:14.554Z,48.14
2019-02-07T10:06:29.097Z,48.09
2019-02-07T10:09:43.756Z,48.16
2019-02-07T10:13:05.973Z,48.14
2019-02-07T10:16:11.733Z,48.19
2019-02-07T10:19:17.431Z,48.16
2019-02-07T10:22:35.113Z,48.16
2019-02-07T10:25:51.349Z,48.23
2019-02-07T10:29:13.221Z,48.12
2019-02-07T10:32:24.754Z,48.17
2019-02-07T10:35:36.442Z,48.21
2019-02-07T10:38:44.810Z,48.16
2019-02-07T10:42:07.027Z,48.23
2019-02-07T10:45:31.645Z,48.17
2019-02-07T10:48:44.282Z,48.21
2019-02-07T10:51:53.637Z,48.14
2019-02-07T10:55:02.253Z,48.19
2019-02-07T10:58:25.523Z,48.12
2019-02-07T11:01:38.361Z,48.14
2019-02-07T11:04:52.745Z,48.18
2019-02-07T11:08:14.715Z,48.17
2019-02-07T11:11:20.389Z,48.15
2019-02-07T11:14:40.997Z,48.15
2019-02-07T11:18:03.094Z,48.16
2019-02-07T11:21:17.494Z,48.19
2019-02-07T11:24:26.174Z,48.19
2019-02-07T11:27:43.673Z,48.20
2019-02-07T11:31:05.537Z,48.16
2019-02-07T11:34:11.517Z,48.18
2019-02-07T11:37:33.654Z,48.18
2019-02-07T11:40:42.079Z,48.14
2019-02-07T11:43:50.713Z,48.17
2019-02-07T11:47:11.707Z,48.15
2019-02-07T11:50:17.404Z,48.15
2019-02-07T11:53:23.089Z,48.18
2019-02-07T11:56:31.469Z,48.19
2019-02-07T11:59:37.146Z,48.19
2019-02-07T12:03:00.698Z,48.22
2019-02-07T12:06:08.647Z,48.13
2019-02-07T12:09:30.181Z,48.18
2019-02-07T12:12:50.918Z,48.19
2019-02-07T12:15:59.231Z,48.22
2019-02-07T12:19:04.911Z,48.21
2019-02-07T12:22:10.613Z,48.23
2019-02-07T12:25:16.290Z,48.21
2019-02-07T12:28:38.465Z,48.15
2019-02-07T12:31:47.199Z,48.14
2019-02-07T12:35:09.417Z,48.13
2019-02-07T12:38:21.301Z,48.12
2019-02-07T12:41:27.002Z,48.17
2019-02-07T12:44:48.896Z,48.14
2019-02-07T12:47:57.321Z,48.11
2019-02-07T12:51:06.162Z,48.16
2019-02-07T12:54:15.074Z,48.17
2019-02-07T12:57:29.665Z,48.17
2019-02-07T13:00:53.285Z,48.18
2019-02-07T13:04:04.450Z,48.17
2019-02-07T13:07:16.056Z,48.18
2019-02-07T13:10:24.498Z,48.18
2019-02-07T13:13:30.240Z,48.20
2019-02-07T13:16:52.434Z,48.18
2019-02-07T13:19:58.127Z,48.17
2019-02-07T13:23:16.516Z,48.18
2019-02-07T13:26:22.176Z,48.18
2019-02-07T13:29:27.923Z,48.15
2019-02-07T13:32:45.509Z,48.19
2019-02-07T13:35:54.036Z,48.19
2019-02-07T13:39:14.698Z,48.23
2019-02-07T13:42:38.590Z,48.24
2019-02-07T13:45:44.289Z,48.21
2019-02-07T13:48:52.842Z,48.24
2019-02-07T13:52:10.588Z,48.21
2019-02-07T13:55:16.297Z,48.25
2019-02-07T13:58:21.978Z,48.23
2019-02-07T14:01:30.647Z,48.22
2019-02-07T14:04:52.775Z,48.20
2019-02-07T14:08:04.150Z,48.21
2019-02-07T14:11:09.848Z,48.25
2019-02-07T14:14:15.526Z,48.26
2019-02-07T14:17:26.970Z,48.26
2019-02-07T14:20:48.818Z,48.22
2019-02-07T14:24:10.906Z,48.32
2019-02-07T14:27:22.789Z,48.37
2019-02-07T14:30:46.674Z,48.41
2019-02-07T14:33:52.348Z,48.39
2019-02-07T14:37:07.049Z,48.46
2019-02-07T14:40:19.076Z,48.51
2019-02-07T14:43:27.453Z,48.48
2019-02-07T14:46:35.818Z,48.47
2019-02-07T14:49:39.861Z,48.42
2019-02-07T14:52:43.917Z,48.32
2019-02-07T14:55:47.960Z,48.29
2019-02-07T14:58:52.021Z,48.23
2019-02-07T15:01:56.081Z,48.20
2019-02-07T15:05:00.126Z,48.13
2019-02-07T15:08:04.252Z,48.08
2019-02-07T15:11:08.286Z,48.03
2019-02-07T15:14:12.349Z,47.95
2019-02-07T15:17:16.408Z,47.86
2019-02-07T15:20:26.306Z,47.85
2019-02-07T15:23:26.209Z,47.83
2019-02-07T15:26:30.286Z,47.76
2019-02-07T15:29:34.326Z,47.77
2019-02-07T15:32:38.390Z,47.77
2019-02-07T15:35:45.420Z,47.77
2019-02-07T15:38:49.483Z,47.76
2019-02-07T15:41:53.540Z,47.74
2019-02-07T15:44:57.575Z,47.75
2019-02-07T15:48:01.633Z,47.78
2019-02-07T15:51:05.836Z,47.75
2019-02-07T15:54:09.903Z,47.75
2019-02-07T15:57:13.962Z,47.75
2019-02-07T16:00:37.326Z,47.74
2019-02-07T16:03:43.025Z,47.72
2019-02-07T16:06:47.100Z,47.62
2019-02-07T16:09:51.138Z,47.53
2019-02-07T16:12:55.197Z,47.43
2019-02-07T16:15:59.238Z,47.42
2019-02-07T16:19:03.370Z,47.27
2019-02-07T16:22:07.434Z,47.08
2019-02-07T16:25:13.513Z,46.95
2019-02-07T16:28:20.213Z,46.94
2019-02-07T16:31:23.417Z,46.74
2019-02-07T16:34:27.477Z,46.79
2019-02-07T16:37:31.537Z,47.27
2019-02-07T16:40:35.754Z,47.20
2019-02-07T16:43:39.818Z,47.02
2019-02-07T16:46:43.869Z,46.60
2019-02-07T16:49:48.215Z,46.69
2019-02-07T16:52:52.363Z,46.39
2019-02-07T16:55:56.385Z,46.35
2019-02-07T16:59:00.447Z,46.89
2019-02-07T17:02:04.486Z,47.04
2019-02-07T17:05:09.206Z,47.10
2019-02-07T17:08:13.249Z,46.47
2019-02-07T17:11:17.289Z,46.60
2019-02-07T17:14:22.326Z,46.33
2019-02-07T17:17:26.385Z,46.48
2019-02-07T17:20:31.460Z,46.57
2019-02-07T17:23:35.520Z,45.99
2019-02-07T17:26:39.553Z,45.92
2019-02-07T17:29:43.610Z,43.56
2019-02-07T17:32:47.681Z,39.77
2019-02-07T17:35:51.717Z,37.02
2019-02-07T17:38:55.782Z,37.26
2019-02-07T17:41:59.824Z,38.86
2019-02-07T17:45:05.221Z,39.13
2019-02-07T17:48:09.281Z,38.33
2019-02-07T17:51:23.006Z,38.63
2019-02-07T17:54:19.289Z,39.13
2019-02-07T17:57:23.453Z,41.56
2019-02-07T18:00:55.919Z,42.74
2019-02-07T18:03:59.983Z,44.03
2019-02-07T18:07:04.292Z,43.96
2019-02-07T18:10:11.094Z,42.02
2019-02-07T18:13:15.156Z,42.84
2019-02-07T18:16:19.196Z,44.48
2019-02-07T18:19:23.261Z,45.09
2019-02-07T18:22:27.301Z,45.51
2019-02-07T18:25:31.368Z,45.65
2019-02-07T18:28:35.436Z,45.55
2019-02-07T18:31:41.183Z,45.37
2019-02-07T18:34:45.249Z,45.27
2019-02-07T18:37:50.983Z,45.30
2019-02-07T18:40:55.043Z,45.25
2019-02-07T18:43:59.105Z,45.23
2019-02-07T18:47:03.424Z,45.20
2019-02-07T18:50:10.744Z,45.20
2019-02-07T18:53:14.888Z,45.24
2019-02-07T18:56:19.334Z,45.21
2019-02-07T18:59:23.400Z,45.28
2019-02-07T19:02:27.440Z,45.37
2019-02-07T19:05:31.910Z,45.19
2019-02-07T19:08:35.941Z,45.08
2019-02-07T19:11:39.980Z,45.05
2019-02-07T19:14:44.320Z,45.11
2019-02-07T19:17:48.360Z,45.12
2019-02-07T19:20:52.425Z,45.09
2019-02-07T19:23:56.860Z,45.18
2019-02-07T19:27:00.909Z,44.53
2019-02-07T19:30:26.393Z,45.11
2019-02-07T19:33:30.455Z,45.16
2019-02-07T19:36:34.777Z,45.39
2019-02-07T19:39:38.844Z,45.50
2019-02-07T19:42:42.878Z,45.47
2019-02-07T19:45:47.420Z,45.53
2019-02-07T19:48:51.485Z,45.70
2019-02-07T19:51:55.524Z,45.66
2019-02-07T19:54:59.764Z,45.70
2019-02-07T19:58:03.821Z,45.65
2019-02-07T20:01:07.875Z,45.76
2019-02-07T20:04:11.934Z,45.72
2019-02-07T20:07:15.976Z,45.76
2019-02-07T20:10:22.805Z,45.73
2019-02-07T20:13:27.220Z,45.66
2019-02-07T20:16:31.284Z,45.65
2019-02-07T20:19:35.347Z,45.72
2019-02-07T20:22:39.383Z,45.80
2019-02-07T20:25:43.491Z,45.83
2019-02-07T20:28:47.533Z,45.82
2019-02-07T20:31:51.600Z,46.00
2019-02-07T20:34:55.664Z,46.00
2019-02-07T20:37:59.704Z,45.90
2019-02-07T20:41:03.777Z,46.00
2019-02-07T20:44:07.834Z,46.04
2019-02-07T20:47:11.871Z,46.14
2019-02-07T20:50:21.072Z,46.21
2019-02-07T20:53:25.111Z,45.93
2019-02-07T20:56:29.179Z,45.85
2019-02-07T20:59:33.254Z,46.02
2019-02-07T21:02:37.277Z,46.44
2019-02-07T21:05:41.515Z,46.39
2019-02-07T21:08:45.571Z,46.42
2019-02-07T21:11:49.620Z,46.43
2019-02-07T21:14:54.066Z,46.53
2019-02-07T21:17:58.104Z,46.51
2019-02-07T21:21:02.163Z,46.51
2019-02-07T21:24:06.598Z,46.56
2019-02-07T21:27:11.052Z,46.51
2019-02-07T21:30:17.861Z,46.48
2019-02-07T21:33:22.180Z,46.68
2019-02-07T21:36:26.246Z,46.53
2019-02-07T21:39:30.313Z,46.69
2019-02-07T21:42:34.362Z,46.52
2019-02-07T21:45:38.419Z,46.69
2019-02-07T21:48:42.459Z,46.71
2019-02-07T21:51:46.527Z,46.57
2019-02-07T21:54:50.603Z,46.66
2019-02-07T21:57:54.632Z,46.75
2019-02-07T22:00:58.696Z,46.80
2019-02-07T22:04:02.737Z,46.64
2019-02-07T22:07:06.795Z,46.72
2019-02-07T22:10:13.600Z,46.67
2019-02-07T22:13:17.636Z,46.78
2019-02-07T22:16:21.697Z,46.86
2019-02-07T22:19:25.750Z,46.92
2019-02-07T22:22:29.823Z,46.84
2019-02-07T22:25:33.883Z,46.79
2019-02-07T22:28:37.931Z,46.91
2019-02-07T22:31:41.995Z,46.97
2019-02-07T22:34:46.030Z,46.93
2019-02-07T22:37:50.096Z,47.05
2019-02-07T22:40:54.155Z,46.97
2019-02-07T22:43:58.200Z,46.97
2019-02-07T22:47:02.260Z,47.03
2019-02-07T22:50:12.479Z,47.08
2019-02-07T22:53:16.520Z,47.03
2019-02-07T22:56:20.864Z,47.14
2019-02-07T22:59:24.908Z,47.13
2019-02-07T23:02:28.959Z,47.16
2019-02-07T23:05:33.403Z,47.17
2019-02-07T23:08:37.442Z,47.21
2019-02-07T23:11:41.506Z,47.20
2019-02-07T23:14:45.928Z,47.26
2019-02-07T23:17:49.986Z,47.25
2019-02-07T23:20:54.045Z,47.34
2019-02-07T23:23:58.460Z,47.30
2019-02-07T23:27:02.560Z,47.35
2019-02-07T23:30:17.482Z,47.41
2019-02-07T23:33:21.533Z,47.42
2019-02-07T23:36:25.582Z,47.44
2019-02-07T23:39:29.620Z,47.44
2019-02-07T23:42:33.683Z,47.48
2019-02-07T23:45:37.743Z,47.47
2019-02-07T23:48:41.783Z,47.49
2019-02-07T23:51:45.868Z,47.47
2019-02-07T23:54:49.912Z,47.51
2019-02-07T23:57:53.968Z,47.48
